Timeline UpdatesTrip UpdatesNews PostsPvt PostsTravel TipsAdmin PostsConv PostsFollowed PostsChat RequestsBlog PostsPNR Posts

Disclaimer
Search
 
 
Sat Jul 26, 2014 03:43:16 ISTHomeTrainsΣChainsAtlasPNRForumGalleryNewsFAQTripsMembersLoginFeedback
No Recent News for this Train
Other Trains in the News **new
Latest...
..
Fri Jul 11, 2014 (12:58PM)
⇐ Return Journey: Train# 19166

19165/Sabarmati Express

Feb 01 2014 (10:56AM)
Change Departure Station:
Change Arrival Station:
Post a Train Travel TipPost a Train Travel Tip **new
Post a Comment/Question/Picture/VideoPost a Comment/Question/Picture/Video
Pantry/Catering
✕ NO Pantry Car
✕ NO Catering
Loco/Rake Reversals
BRC/Vadodara Junction (7); SHG/Shahganj Junction (4); BINA/Bina Junction (4); SPJ/Samastipur Junction (9);
RSA - Rake Sharing
19165/19166/19167/19168 has RSA
Rake/Coach Composition
LOCO-SLR-GS-GS-A1-B1-B2-S1-S2-S3-S4-S5-S6-S7-S8-S9-S10-S11-S12-S13-GS-GS-SLR
Loco
ADI-RTM :BRC WAP4E RTM-DBG :RTM WDM3A
News    PNR    Forum    Time-Table    Availability    Fare Chart    Map    Arr/Dep History    Trips    Gallery    ΣChains    X/O    Timeline    
Travel Time: 1h 55m    4 halts    Distance: 100 km    Avg Speed: 52 km/hr
Type: Mail/Express
Zone: WR/Western
Departs @ 20:50
Platform# 2
S  W F 
Ahmedabad Junction/ADI 
Arrives @ 22:45
Platform# 7
S  W F 
Vadodara Junction/BRC 

4 halts. 21 intermediate Stations between Ahmedabad Junction and Vadodara Junction

Show ALL intermediate Stations  Show Old Time-Table

#CodeStation NameX/OArrivesAvgDepartsAvgHaltPFDay#KmSpeedElevZoneAddress
1ADI»Ahmedabad Junction (12)»  -20:50-210.02751mWRAhmedabad, Gujarat
2MANManinagar (2)X  20:57-20:59-2m213.26250mWRAhmadabad, Gujarat
3MHDMahemdavad Kheda Road (4)X  21:23-21:25-2m2128.07537mWRMahemdavad, Gujarat
4NDNadiad Junction (4)  21:39-21:41-2m1145.66237mWRNadiad, Gujarat
5ANNDAnand Junction (6)X  21:59-22:01-2m1164.14944mWRAnand, Gujarat
6BRC•Vadodara Junction (7)•XO22:45-23:10-25m7199.85336mWRVadodara 390005, Gujarat
7GDAGodhra Junction (3)X  00:33-00:35-2m--2173.780122mWRGodhra, Gujarat
8DHDDahod (3)X  01:30-01:32-2m--2246.890313mWRDahod, Gujarat
9MGNMeghnagar (3)X  01:54-01:56-2m--2279.954317mWRJhabua, Madhya Pradesh
10RTMRatlam Junction (7)X  03:25-03:40-15m52360.275495mWRRatlam, Madhya Pradesh
11KUHKhachrod (2)  04:02-04:04-2m--2387.932497mWRUjjain, Madhya Pradesh
12NADNagda Junction (4)  04:30-04:35-5m--2401.761468mWRNagda, Madhya Pradesh
13UJNUjjain Junction (8)X  05:30-05:50-20m--2457.380492mWRUjjain 456001, Madhya Pradesh
14TANTarana Road  06:15-06:17-2m--2490.716498mWRMaksi, Madhya Pradesh
15MKCMaksi Junction (3)  06:53-06:55-2m--2500.369513mWRMakshi, Madhya Pradesh
16SFYShajapur  07:19-07:21-2m--2528.155450mWCRShajapur, Madhya Pradesh
17SFWSarangpur  07:50-07:52-2m--2554.663422mWCRSarangpur, Madhya Pradesh
18PFRPachor Road  08:23-08:25-2m--2587.363419mWCRPachore, Madhya Pradesh
19BRRGBiyavra Rajgarh  08:53-08:55-2m--2616.542423mWCRBiaora, Madhya Pradesh
20CBKChachaura Binaganj (1)  09:38-09:40-2m12646.949435mWCRGuna, Madhya Pradesh
21KHRJKumbhraj (1)  10:08-10:10-2m12669.6143401mWCRManpura, Madhya Pradesh
22VJPVijay PurX  10:18-10:20-2m--2688.721420mWCRVijaipur, Madhya Pradesh
23RTARuthiyai Junction (2)  10:35-10:40-5m--2693.920414mWCRRuthiyai, Madhya Pradesh
24GUNAGuna Junction (3)X  11:40-11:55-15m22714.262477mWCRJn Point Indore/Gwalior/Bina/Kota, Madhya Pradesh
25ASKNAshok Nagar (2)  12:38-12:40-2m--2758.372502mWCRAshoknagar, Madhya Pradesh
26PIAPipraigaon (3)X  13:02-13:04-2m12784.746451mWCRAshoknagar, Madhya Pradesh
27MNVMungaoli (2)  13:29-13:31-2m--2804.036403mWCRAshoknagar, Madhya Pradesh
28BINABina Junction (4)X14:20-14:40-20m42833.056414mWCRJn Pt - KATNI/GUNA/ BPL/JHS, Madhya Pradesh
29DUADhaura (3)X  15:17-15:19-2m--2867.663407mNCRDhaura Tanda, Madhya Pradesh
30JLNJakhalaun (3)  15:30-15:32-2m--2879.277394mNCRLalitpur(05176-272220), Uttar Pradesh
31LARLalitpur (3)X  15:45-15:47-2m32896.092373mNCRLalitpur, Uttar Pradesh
32TBTTalbahat (4)X  16:13-16:15-2m32935.871314mNCRKhaniyadhana Station Rd, Madhya Pradesh
33BABBabina (3)  16:36-16:38-2m22960.841285mNCRBabina, Uttar Pradesh
34JHSJhansi Junction (7)  17:15-17:30-15m--2986.379259mNCRJhansi, Uttar Pradesh
35CGNChirgaon  17:54-17:56-2m--21018.074192mNCRChirgaon, Uttar Pradesh
36MOTHMoth  18:15-18:17-2m--21041.582175mNCRJhansi, Uttar Pradesh
37AITAit Junction (2)  18:42-18:44-2m121075.659154mNCROrai(05162-252206), Uttar Pradesh
38ORAIOrai (3)X  19:09-19:11-2m321100.273139mNCROrai(05162-252206), Uttar Pradesh
39KPIKalpiX  19:38-19:40-2m--21133.048114mNCRKalpi Orai(05162-252206), Uttar Pradesh
40CNHChaunrah  19:48-19:50-2m--21139.365134mNCRNational Highway 25, Uttar Pradesh
41PHNPokhrayan (2)X  19:58-20:00-2m121148.118133mNCRPukhrayan, Uttar Pradesh
42BZMBhimsen (1)  22:28-22:30-2m121192.421136mNCRKanpur, Uttar Pradesh
43CNBKanpur Central (10)X  23:10-23:20-10m--21206.550128mNCRKANPUR-208 001, Uttar Pradesh
44ONUnnao Junction (5)X  23:41-23:43-2m--21223.949129mNRUnnao, Uttar Pradesh
45LKOLucknow Charbagh (9)X  00:50-01:05-15m331278.540123mNR226004, Uttar Pradesh
46BBKBarabanki Junction (4)  01:48-01:50-2m--31307.171122mNRPin-225001, Uttar Pradesh
47DYDDaryabad  02:22-02:24-2m--31345.145116mNRFaizabad Rd, Uttar Pradesh
48RDLRudauli (2)  02:55-02:57-2m--31368.234112mNRRudauli, Uttar Pradesh
49FDFaizabad Junction (5)  04:05-04:10-5m--31406.327104mNRFaizabad, Uttar Pradesh
50AYAyodhya Junction (3)  04:25-04:27-2m--31413.17098mNRAyodhya, Uttar Pradesh
51GGJGoshainGanj (3)X  04:54-04:56-2m--31444.84498mNRGoshainganj, Uttar Pradesh
52ABPAkbarpur (2)  05:26-05:28-2m--31467.06492mNRAkbarpur, Uttar Pradesh
53MLPRMalipur (2)  05:46-05:48-2m--31486.13692mNRMalipur, Uttar Pradesh
54SHGShahganj Junction (4)06:30-07:10-40m--31511.16190mNRShahganj, Uttar Pradesh
55KRNDKhorason Road (2)  07:31-07:33-2m--31532.24885mNERUttar Pradesh 276304 ?, Uttar Pradesh
56SMZSarai Mir (2)  07:44-07:46-2m--31541.14687mNERTowa Ahirana, Uttar Pradesh
57AMHAzamgarh (2)  08:20-08:25-5m131567.03081mNERAzamgarh, Uttar Pradesh
58MMAMuhammadabad (2)  09:08-09:10-2m--31588.62980mNERMuhammadabad Marg, Uttar Pradesh
59MAUMau Junction (4)X  09:55-10:10-15m--31610.23975mNERMau., Uttar Pradesh
60IAAIndara Junction (3)  10:22-10:24-2m--31618.15974mNERMau, Uttar Pradesh
61RSRRasra (2)X  10:53-10:55-2m--31646.43970mNERRasra, Uttar Pradesh
62BUIBallia (3)  11:45-11:50-5m--31679.17362mNERBallia, Uttar Pradesh
63SIPSuraimanpur  12:20-12:22-2m--31715.53060mNERBallia, Uttar Pradesh
64CPRChhapra Junction (6)X  13:20-13:40-20m--31744.74358mNERDistt: Saran, Bihar
65SEESonpur Junction (4)X  14:55-15:04-9m--31798.82556mECRSaran, Bihar
66HJPHajipur Junction (3)  15:17-15:19-2m--31804.36155mECR06224-272230, Bihar
67MFPMuzaffarpur Junction (6)X  16:12-16:22-10m131858.14657mECRMuzaffarpur, Bihar
68SPJSamastipur Junction (9)XO17:30-17:58-28m--31910.23255mECRSamastipur, Bihar
69LSILaheria Sarai (1)  18:58-19:00-2m131942.62052mECRDarbhanga, Bihar
70DBGDarbhanga Junction (5)  19:15--131947.6-54mECRDarbhanga, Bihar
Scroll to Top
Scroll to Bottom